createdAt,value
2018-11-26T00:13:06.796Z,167.87
2018-11-26T00:15:40.391Z,163.47
2018-11-26T00:18:14.009Z,164.23
2018-11-26T00:20:48.448Z,170.00
2018-11-26T00:23:22.144Z,162.17
2018-11-26T00:25:55.753Z,172.97
2018-11-26T00:28:29.310Z,168.47
2018-11-26T00:31:03.058Z,181.97
2018-11-26T00:33:36.721Z,189.23
2018-11-26T00:36:10.317Z,185.63
2018-11-26T00:38:44.051Z,198.63
2018-11-26T00:41:17.640Z,177.13
2018-11-26T00:43:51.586Z,189.63
2018-11-26T00:46:25.199Z,175.00
2018-11-26T00:48:58.838Z,193.30
2018-11-26T00:51:32.486Z,173.00
2018-11-26T00:54:06.081Z,159.70
2018-11-26T00:56:39.717Z,156.33
2018-11-26T00:59:13.410Z,165.30
2018-11-26T01:01:47.344Z,175.40
2018-11-26T01:04:20.976Z,162.20
2018-11-26T01:06:54.659Z,196.23
2018-11-26T01:09:28.251Z,167.40
2018-11-26T01:12:01.925Z,164.67
2018-11-26T01:14:35.496Z,195.33
2018-11-26T01:17:09.173Z,194.10
2018-11-26T01:19:43.049Z,189.63
2018-11-26T01:22:16.547Z,188.83
2018-11-26T01:24:50.406Z,188.07
2018-11-26T01:27:24.171Z,215.60
2018-11-26T01:29:57.933Z,187.37
2018-11-26T01:32:31.447Z,181.10
2018-11-26T01:35:06.346Z,197.57
2018-11-26T01:37:46.664Z,188.87
2018-11-26T01:40:21.769Z,195.37
2018-11-26T01:42:55.702Z,214.30
2018-11-26T01:45:29.271Z,178.77
2018-11-26T01:48:02.664Z,177.70
2018-11-26T01:50:36.597Z,193.00
2018-11-26T01:53:10.360Z,181.93
2018-11-26T01:55:44.033Z,180.53
2018-11-26T01:58:17.539Z,177.60
2018-11-26T02:00:51.289Z,202.90
2018-11-26T02:03:24.818Z,201.97
2018-11-26T02:05:58.495Z,173.83
2018-11-26T02:08:32.192Z,177.47
2018-11-26T02:11:06.536Z,187.53
2018-11-26T02:13:40.498Z,193.77
2018-11-26T02:16:14.199Z,208.73
2018-11-26T02:18:47.850Z,175.37
2018-11-26T02:21:21.662Z,181.97
2018-11-26T02:23:55.357Z,171.40
2018-11-26T02:26:29.117Z,190.57
2018-11-26T02:29:02.732Z,186.77
2018-11-26T02:31:36.583Z,185.87
2018-11-26T02:34:10.535Z,197.87
2018-11-26T02:36:44.158Z,192.67
2018-11-26T02:39:24.735Z,194.67
2018-11-26T02:41:58.860Z,157.73
2018-11-26T02:44:32.333Z,178.50
2018-11-26T02:47:06.335Z,190.80
2018-11-26T02:49:40.423Z,172.37
2018-11-26T02:52:14.649Z,197.70
2018-11-26T02:54:48.262Z,180.40
2018-11-26T02:57:22.054Z,148.17
2018-11-26T02:59:55.663Z,185.53
2018-11-26T03:02:29.820Z,192.43
2018-11-26T03:05:04.511Z,172.73
2018-11-26T03:07:38.553Z,174.27
2018-11-26T03:10:12.150Z,169.23
2018-11-26T03:12:45.754Z,168.77
2018-11-26T03:15:19.500Z,171.03
2018-11-26T03:17:53.023Z,168.70
2018-11-26T03:20:26.831Z,162.73
2018-11-26T03:23:00.754Z,180.73
2018-11-26T03:25:34.540Z,163.27
2018-11-26T03:28:08.055Z,159.30
2018-11-26T03:30:41.618Z,166.83
2018-11-26T03:33:15.309Z,165.67
2018-11-26T03:35:48.855Z,162.53
2018-11-26T03:38:34.444Z,156.50
2018-11-26T03:41:08.430Z,164.90
2018-11-26T03:43:42.333Z,142.83
2018-11-26T03:46:16.072Z,146.23
2018-11-26T03:48:49.725Z,166.13
2018-11-26T03:51:23.419Z,170.63
2018-11-26T03:53:57.722Z,156.93
2018-11-26T03:56:31.996Z,177.87
2018-11-26T03:59:05.871Z,178.90
2018-11-26T04:01:39.432Z,176.47
2018-11-26T04:04:12.922Z,160.40
2018-11-26T04:06:46.743Z,138.80
2018-11-26T04:09:20.187Z,157.33
2018-11-26T04:11:54.256Z,158.23
2018-11-26T04:14:28.494Z,146.67
2018-11-26T04:17:04.694Z,157.27
2018-11-26T04:19:39.024Z,148.53
2018-11-26T04:22:12.574Z,142.57
2018-11-26T04:24:46.572Z,157.27
2018-11-26T04:27:20.127Z,146.73
2018-11-26T04:29:53.764Z,148.63
2018-11-26T04:32:27.328Z,147.87
2018-11-26T04:35:00.910Z,142.87
2018-11-26T04:37:34.750Z,135.03
2018-11-26T04:40:09.825Z,138.20
2018-11-26T04:42:44.081Z,130.83
2018-11-26T04:45:17.687Z,130.30
2018-11-26T04:47:51.221Z,141.97
2018-11-26T04:50:25.959Z,142.53
2018-11-26T04:52:59.526Z,137.37
2018-11-26T04:55:33.053Z,141.37
2018-11-26T04:58:06.817Z,125.93
2018-11-26T05:00:40.481Z,137.60
2018-11-26T05:03:14.425Z,142.07
2018-11-26T05:05:48.040Z,133.77
2018-11-26T05:08:21.482Z,131.73
2018-11-26T05:10:55.179Z,131.10
2018-11-26T05:13:28.776Z,131.27
2018-11-26T05:16:02.809Z,111.27
2018-11-26T05:18:36.455Z,122.10
2018-11-26T05:21:10.254Z,127.57
2018-11-26T05:23:43.733Z,129.97
2018-11-26T05:26:17.636Z,129.63
2018-11-26T05:28:51.253Z,121.33
2018-11-26T05:31:24.759Z,132.90
2018-11-26T05:33:58.389Z,123.97
2018-11-26T05:36:32.296Z,127.47
2018-11-26T05:39:07.407Z,123.93
2018-11-26T05:41:40.882Z,124.10
2018-11-26T05:44:14.442Z,127.67
2018-11-26T05:46:48.029Z,119.80
2018-11-26T05:49:22.361Z,121.77
2018-11-26T05:51:55.350Z,126.53
2018-11-26T05:54:29.109Z,123.90
2018-11-26T05:57:02.558Z,114.27
2018-11-26T05:59:36.033Z,126.33
2018-11-26T06:02:09.818Z,118.33
2018-11-26T06:04:43.478Z,120.17
2018-11-26T06:07:17.182Z,126.57
2018-11-26T06:09:51.569Z,119.43
2018-11-26T06:12:25.465Z,134.60
2018-11-26T06:14:59.250Z,132.37
2018-11-26T06:17:33.019Z,123.47
2018-11-26T06:20:10.005Z,118.40
2018-11-26T06:22:44.825Z,119.13
2018-11-26T06:25:19.455Z,135.40
2018-11-26T06:27:52.894Z,112.40
2018-11-26T06:30:26.494Z,131.47
2018-11-26T06:33:00.260Z,124.33
2018-11-26T06:35:34.383Z,117.93
2018-11-26T06:38:08.130Z,123.80
2018-11-26T06:40:42.298Z,118.17
2018-11-26T06:43:17.427Z,128.83
2018-11-26T06:45:50.347Z,116.37
2018-11-26T06:48:24.142Z,128.20
2018-11-26T06:50:57.846Z,111.90
2018-11-26T06:53:31.524Z,123.23
2018-11-26T06:56:05.441Z,116.07
2018-11-26T06:58:38.784Z,118.17
2018-11-26T07:01:12.454Z,107.53
2018-11-26T07:03:46.185Z,117.40
2018-11-26T07:06:19.874Z,127.43
2018-11-26T07:08:53.606Z,126.63
2018-11-26T07:11:27.037Z,116.50
2018-11-26T07:14:00.942Z,121.67
2018-11-26T07:16:34.710Z,128.33
2018-11-26T07:19:08.218Z,121.03
2018-11-26T07:21:42.054Z,115.10
2018-11-26T07:24:16.836Z,112.23
2018-11-26T07:26:51.133Z,120.10
2018-11-26T07:29:24.750Z,103.77
2018-11-26T07:31:58.641Z,106.83
2018-11-26T07:34:32.173Z,109.00
2018-11-26T07:37:05.869Z,102.93
2018-11-26T07:39:39.546Z,102.40
